createdAt,value
2019-04-21T00:00:45.629Z,36.25
2019-04-21T00:03:21.704Z,37.25
2019-04-21T00:06:04.533Z,38.75
2019-04-21T00:08:48.519Z,36.50
2019-04-21T00:11:09.672Z,38.25
2019-04-21T00:13:35.505Z,36.75
2019-04-21T00:15:57.373Z,39.75
2019-04-21T00:18:51.922Z,37.75
2019-04-21T00:21:24.374Z,37.25
2019-04-21T00:24:01.823Z,38.25
2019-04-21T00:26:35.182Z,38.75
2019-04-21T00:29:09.165Z,39.25
2019-04-21T00:31:33.654Z,36.25
2019-04-21T00:33:50.208Z,38.25
2019-04-21T00:36:25.965Z,36.00
2019-04-21T00:39:20.956Z,39.25
2019-04-21T00:41:45.029Z,38.00
2019-04-21T00:44:04.536Z,39.75
2019-04-21T00:46:42.781Z,43.25
2019-04-21T00:49:10.900Z,39.75
2019-04-21T00:52:11.345Z,39.75
2019-04-21T00:54:39.881Z,39.75
2019-04-21T00:57:00.719Z,38.75
2019-04-21T00:59:28.615Z,38.75
2019-04-21T01:01:53.881Z,39.00
2019-04-21T01:04:33.842Z,41.00
2019-04-21T01:07:02.868Z,39.75
2019-04-21T01:09:27.637Z,41.25
2019-04-21T01:12:03.634Z,40.75
2019-04-21T01:14:40.725Z,42.75
2019-04-21T01:17:11.127Z,42.75
2019-04-21T01:19:33.657Z,43.75
2019-04-21T01:21:45.618Z,44.75
2019-04-21T01:24:21.706Z,45.25
2019-04-21T01:26:59.610Z,45.25
2019-04-21T01:29:44.168Z,44.75
2019-04-21T01:32:12.888Z,45.25
2019-04-21T01:34:43.024Z,45.25
2019-04-21T01:37:04.601Z,48.25
2019-04-21T01:39:48.633Z,44.75
2019-04-21T01:42:15.779Z,48.75
2019-04-21T01:44:46.139Z,48.75
2019-04-21T01:47:13.968Z,48.75
2019-04-21T01:49:36.847Z,48.25
2019-04-21T01:52:24.605Z,49.25
2019-04-21T01:55:12.382Z,48.75
2019-04-21T01:57:57.592Z,49.75
2019-04-21T02:00:46.962Z,48.75
2019-04-21T02:03:34.716Z,52.25
2019-04-21T02:06:02.726Z,51.75
2019-04-21T02:08:24.268Z,52.75
2019-04-21T02:10:54.934Z,52.75
2019-04-21T02:13:18.912Z,52.75
2019-04-21T02:16:02.274Z,53.75
2019-04-21T02:18:24.314Z,50.25
2019-04-21T02:20:45.647Z,52.75
2019-04-21T02:23:35.049Z,51.75
2019-04-21T02:26:02.094Z,52.75
2019-04-21T02:28:40.471Z,54.25
2019-04-21T02:33:50.317Z,53.75
2019-04-21T02:36:22.765Z,51.25
2019-04-21T02:38:52.969Z,53.75
2019-04-21T02:41:05.785Z,56.25
2019-04-21T02:43:44.805Z,52.75
2019-04-21T02:46:25.674Z,53.75
2019-04-21T02:51:19.377Z,53.75
2019-04-21T02:54:32.229Z,55.00
2019-04-21T03:04:38.432Z,57.75
2019-04-21T03:07:13.256Z,58.75
2019-04-21T03:09:35.766Z,57.75
2019-04-21T03:12:23.597Z,57.75
2019-04-21T03:17:18.279Z,55.75
2019-04-21T03:22:21.007Z,57.25
2019-04-21T03:27:31.094Z,56.75
2019-04-21T03:29:54.389Z,58.25
2019-04-21T03:33:06.090Z,57.75
2019-04-21T03:40:06.867Z,60.75
2019-04-21T03:42:34.489Z,60.75
2019-04-21T03:44:57.393Z,60.25
2019-04-21T03:47:30.885Z,59.00
2019-04-21T03:50:05.244Z,60.25
2019-04-21T03:52:31.876Z,61.25
2019-04-21T04:04:03.707Z,60.75
2019-04-21T04:06:24.589Z,59.50
2019-04-21T04:09:19.009Z,62.00
2019-04-21T04:11:54.733Z,62.00
2019-04-21T04:16:59.336Z,63.00
2019-04-21T04:19:18.810Z,63.75
2019-04-21T04:21:57.526Z,66.00
2019-04-21T04:27:02.502Z,62.50
2019-04-21T04:29:20.489Z,61.50
2019-04-21T04:37:05.543Z,62.00
2019-04-21T04:39:48.816Z,65.00
2019-04-21T04:42:41.323Z,64.50
2019-04-21T05:05:07.362Z,67.00
2019-04-21T05:12:29.445Z,66.00
2019-04-21T05:15:04.144Z,67.50
2019-04-21T05:17:38.344Z,68.50
2019-04-21T05:20:08.609Z,66.00
2019-04-21T05:22:33.470Z,68.00
2019-04-21T05:24:55.396Z,67.00
2019-04-21T05:27:46.934Z,68.00
2019-04-21T05:33:18.747Z,68.50
2019-04-21T05:36:14.274Z,70.00
2019-04-21T05:39:06.487Z,66.00
2019-04-21T05:41:26.589Z,68.50
2019-04-21T05:44:13.224Z,72.50
2019-04-21T05:46:42.186Z,69.75
2019-04-21T05:49:20.594Z,67.25
2019-04-21T05:51:57.471Z,68.25
2019-04-21T05:54:40.825Z,68.75
2019-04-21T05:57:01.096Z,68.25
2019-04-21T05:59:56.038Z,69.75
2019-04-21T06:07:40.744Z,69.75
2019-04-21T06:10:12.330Z,66.75
2019-04-21T06:12:59.613Z,72.75
2019-04-21T06:15:30.418Z,68.75
2019-04-21T06:17:57.939Z,76.25
2019-04-21T06:20:35.483Z,72.75
2019-04-21T06:23:20.373Z,74.50
2019-04-21T06:26:52.104Z,73.50
2019-04-21T06:35:48.475Z,74.50
2019-04-21T06:38:13.823Z,70.00
2019-04-21T06:40:42.281Z,72.25
2019-04-21T06:43:23.957Z,69.50
2019-04-21T06:45:51.092Z,75.25
2019-04-21T06:48:18.547Z,76.25
2019-04-21T06:50:45.822Z,76.75
2019-04-21T06:53:22.121Z,75.75
2019-04-21T06:55:44.134Z,75.75
2019-04-21T06:58:10.406Z,79.50
2019-04-21T07:00:40.905Z,78.00
2019-04-21T07:03:20.750Z,70.25
2019-04-21T07:05:58.979Z,77.75
2019-04-21T07:08:28.795Z,71.00
2019-04-21T07:10:53.272Z,76.25
2019-04-21T07:13:22.016Z,75.00
2019-04-21T07:15:49.906Z,78.75
2019-04-21T07:18:32.647Z,72.25
2019-04-21T07:20:56.479Z,70.75
2019-04-21T07:23:27.928Z,70.75
2019-04-21T07:25:58.232Z,71.25
2019-04-21T07:28:25.516Z,76.25
2019-04-21T07:31:03.615Z,67.75
2019-04-21T07:33:50.666Z,72.75
2019-04-21T07:36:03.544Z,67.50
2019-04-21T07:38:35.544Z,67.75
2019-04-21T07:40:58.775Z,67.00
2019-04-21T07:43:30.056Z,67.00
2019-04-21T07:45:58.145Z,59.75
2019-04-21T07:48:49.755Z,66.50
2019-04-21T07:51:43.748Z,61.75
2019-04-21T07:54:18.682Z,61.75
2019-04-21T07:56:33.212Z,64.75
2019-04-21T07:59:34.215Z,63.75
2019-04-21T08:01:55.069Z,62.25
2019-04-21T08:04:42.454Z,60.25
2019-04-21T08:06:55.457Z,57.25
2019-04-21T08:09:33.022Z,61.50
2019-04-21T08:12:00.125Z,62.75
2019-04-21T08:14:35.502Z,59.75
2019-04-21T08:17:04.908Z,60.25
2019-04-21T08:19:31.018Z,61.75
2019-04-21T08:22:11.010Z,62.00
2019-04-21T08:24:34.723Z,61.00
2019-04-21T08:27:10.887Z,61.75
2019-04-21T08:29:39.483Z,62.75
2019-04-21T08:32:18.098Z,60.50
2019-04-21T08:34:42.928Z,52.50
2019-04-21T08:37:15.118Z,55.00
2019-04-21T08:39:49.629Z,57.00
2019-04-21T08:42:15.544Z,52.25
2019-04-21T08:44:47.962Z,51.25
2019-04-21T08:47:19.078Z,52.50
2019-04-21T08:49:55.369Z,51.25
2019-04-21T08:52:39.399Z,48.25
2019-04-21T08:54:57.025Z,46.75
2019-04-21T08:57:46.408Z,45.00
2019-04-21T09:00:16.274Z,44.50
2019-04-21T09:03:06.698Z,43.00
2019-04-21T09:05:40.997Z,42.50
2019-04-21T09:08:13.751Z,43.00
2019-04-21T09:10:44.424Z,43.75
2019-04-21T09:13:04.584Z,44.75
2019-04-21T09:15:39.646Z,43.00
2019-04-21T09:18:07.487Z,41.00
2019-04-21T09:20:46.131Z,41.75
2019-04-21T09:23:18.141Z,40.75
2019-04-21T09:25:46.555Z,38.75
2019-04-21T09:28:10.891Z,38.25
2019-04-21T09:30:26.353Z,38.25
2019-04-21T09:32:58.210Z,38.00
2019-04-21T09:35:27.082Z,38.00
2019-04-21T09:38:03.014Z,36.75
2019-04-21T09:40:33.684Z,34.75
2019-04-21T09:43:03.260Z,33.25
2019-04-21T09:45:28.922Z,34.00
2019-04-21T09:48:04.471Z,33.50
2019-04-21T09:50:30.103Z,30.25
2019-04-21T09:53:10.461Z,31.00
2019-04-21T09:55:36.448Z,33.00
2019-04-21T09:58:10.153Z,30.75
2019-04-21T10:00:43.550Z,31.00
2019-04-21T10:03:08.407Z,32.00
2019-04-21T10:05:33.859Z,29.00
2019-04-21T10:08:03.669Z,27.75
2019-04-21T10:10:34.116Z,29.25
2019-04-21T10:13:05.067Z,28.50
2019-04-21T10:15:35.424Z,29.50
2019-04-21T10:18:10.794Z,28.75
2019-04-21T10:20:40.745Z,29.00
2019-04-21T10:23:11.400Z,27.75
2019-04-21T10:25:40.999Z,28.50
2019-04-21T10:28:12.784Z,28.00
2019-04-21T10:30:42.631Z,28.75
2019-04-21T10:33:12.942Z,26.50
2019-04-21T10:35:43.375Z,27.75
2019-04-21T10:38:22.707Z,28.00
2019-04-21T10:40:43.648Z,29.00
2019-04-21T10:46:12.919Z,27.00
2019-04-21T10:48:43.178Z,25.75
2019-04-21T10:51:13.059Z,28.25
2019-04-21T10:53:43.475Z,28.00
2019-04-21T10:56:21.863Z,26.50
2019-04-21T10:58:46.408Z,26.75
2019-04-21T11:01:23.161Z,25.75
2019-04-21T11:04:27.830Z,25.00
2019-04-21T11:06:57.086Z,25.25
2019-04-21T11:09:31.790Z,25.25
2019-04-21T11:12:02.064Z,25.00
2019-04-21T11:14:31.524Z,24.00
2019-04-21T11:17:00.811Z,24.75
2019-04-21T11:19:30.697Z,24.75
2019-04-21T11:22:00.859Z,24.50
2019-04-21T11:24:31.376Z,26.00
2019-04-21T11:27:01.847Z,26.00
2019-04-21T11:29:31.096Z,26.00
2019-04-21T11:32:00.977Z,25.50
2019-04-21T11:34:31.455Z,26.00
2019-04-21T11:37:01.876Z,23.25
2019-04-21T11:39:44.525Z,24.75
2019-04-21T11:42:12.079Z,24.25
2019-04-21T11:44:41.722Z,27.00
2019-04-21T11:47:18.585Z,24.25
2019-04-21T11:49:47.689Z,26.75
2019-04-21T11:52:18.866Z,26.75
2019-04-21T11:54:48.973Z,27.25
2019-04-21T11:57:24.610Z,27.25
2019-04-21T11:59:49.242Z,28.00
2019-04-21T12:02:19.424Z,26.50
2019-04-21T12:04:49.544Z,28.75
2019-04-21T12:07:19.950Z,28.50
2019-04-21T12:09:48.996Z,29.75
2019-04-21T12:12:19.113Z,28.50
2019-04-21T12:14:48.259Z,29.00
2019-04-21T12:17:18.345Z,28.00
2019-04-21T12:19:48.559Z,28.50
2019-04-21T12:22:22.187Z,26.75
2019-04-21T12:24:49.075Z,26.00
2019-04-21T12:27:18.292Z,27.75
2019-04-21T12:29:48.000Z,26.75
2019-04-21T12:32:36.457Z,27.00
2019-04-21T12:35:06.198Z,27.75
2019-04-21T12:37:35.433Z,27.00
2019-04-21T12:40:06.357Z,27.25
2019-04-21T12:42:38.754Z,26.00
2019-04-21T12:45:07.569Z,26.75
2019-04-21T12:47:38.009Z,27.75
2019-04-21T12:50:08.707Z,26.25
2019-04-21T12:52:37.955Z,25.75
2019-04-21T12:55:07.537Z,26.75
2019-04-21T12:57:37.234Z,25.25
2019-04-21T13:00:11.155Z,25.00
2019-04-21T13:02:40.451Z,26.00
2019-04-21T13:05:09.912Z,27.00
2019-04-21T13:07:41.492Z,26.00
2019-04-21T13:10:12.591Z,26.00
2019-04-21T13:12:41.873Z,24.50
2019-04-21T13:15:11.522Z,25.00
2019-04-21T13:17:44.018Z,26.00
2019-04-21T13:20:12.057Z,24.75
2019-04-21T13:22:41.959Z,24.75
2019-04-21T13:25:11.840Z,24.75
2019-04-21T13:27:43.019Z,25.00
2019-04-21T13:30:14.890Z,23.75
2019-04-21T13:32:47.056Z,24.25
2019-04-21T13:35:21.232Z,26.50
2019-04-21T13:37:52.301Z,25.25
2019-04-21T13:41:17.756Z,25.00
2019-04-21T13:43:33.059Z,23.50
2019-04-21T13:46:03.691Z,24.25
2019-04-21T13:48:34.612Z,24.75
2019-04-21T13:51:04.993Z,24.00
2019-04-21T13:53:34.940Z,25.00
2019-04-21T13:56:06.683Z,23.25
2019-04-21T13:58:36.068Z,24.75
2019-04-21T14:02:11.273Z,22.75
2019-04-21T14:04:41.203Z,24.00
2019-04-21T14:07:10.551Z,22.75
2019-04-21T14:09:47.690Z,21.75
2019-04-21T14:12:11.716Z,22.25
2019-04-21T14:14:42.378Z,21.00
2019-04-21T14:17:12.780Z,22.75
2019-04-21T14:19:41.965Z,22.75
2019-04-21T14:22:13.811Z,20.00
2019-04-21T14:24:43.754Z,21.00
2019-04-21T14:27:14.248Z,20.50
2019-04-21T14:29:43.893Z,21.00
2019-04-21T14:32:16.117Z,20.50
2019-04-21T14:37:20.420Z,20.00
2019-04-21T14:39:57.811Z,18.00
2019-04-21T14:42:20.554Z,20.50
2019-04-21T14:44:51.104Z,19.00
2019-04-21T14:47:36.323Z,20.00
2019-04-21T14:50:26.247Z,18.00
2019-04-21T14:53:29.821Z,19.50
2019-04-21T14:55:59.504Z,18.50
2019-04-21T14:58:28.718Z,20.00
2019-04-21T15:01:04.186Z,19.75
2019-04-21T15:03:34.252Z,18.00
2019-04-21T15:06:07.502Z,17.00
2019-04-21T15:08:37.404Z,18.50
2019-04-21T15:11:07.100Z,22.50
2019-04-21T15:13:37.764Z,19.50
2019-04-21T15:16:08.930Z,18.50
2019-04-21T15:18:39.025Z,18.25
2019-04-21T15:21:08.388Z,17.50
2019-04-21T15:23:38.218Z,19.50
2019-04-21T15:26:08.310Z,17.50
2019-04-21T15:28:39.104Z,21.00
2019-04-21T15:31:12.795Z,17.50
2019-04-21T15:33:41.212Z,20.25
2019-04-21T15:36:11.237Z,20.75
2019-04-21T15:38:40.523Z,18.50
2019-04-21T15:41:12.593Z,16.50
2019-04-21T15:43:42.572Z,16.50
2019-04-21T15:46:13.056Z,20.00
2019-04-21T15:48:42.634Z,16.50
2019-04-21T15:51:14.068Z,16.00
2019-04-21T15:53:43.895Z,19.00
2019-04-21T15:56:26.844Z,17.75
2019-04-21T15:59:18.839Z,18.00
2019-04-21T16:02:08.390Z,18.00
2019-04-21T16:04:38.940Z,18.75
2019-04-21T16:07:08.492Z,18.25
2019-04-21T16:09:38.063Z,21.00
2019-04-21T16:12:09.691Z,20.75
2019-04-21T16:14:41.008Z,20.25
2019-04-21T16:17:12.400Z,20.00
2019-04-21T16:19:43.901Z,24.00
2019-04-21T16:22:16.827Z,18.75
2019-04-21T16:24:54.626Z,22.50
2019-04-21T16:27:27.563Z,23.25
2019-04-21T16:30:03.901Z,20.00
2019-04-21T16:32:36.742Z,21.75
2019-04-21T16:35:10.655Z,22.00
2019-04-21T16:37:41.623Z,22.75
2019-04-21T16:40:13.764Z,23.00
2019-04-21T16:42:47.975Z,21.25
2019-04-21T16:45:21.008Z,20.50
2019-04-21T16:47:53.748Z,20.75
2019-04-21T16:50:26.081Z,19.50
2019-04-21T16:53:10.266Z,18.25
2019-04-21T16:55:48.972Z,21.75
2019-04-21T16:58:28.901Z,18.00
2019-04-21T17:01:08.302Z,21.00
2019-04-21T17:03:34.603Z,21.00
2019-04-21T17:06:11.203Z,18.50
2019-04-21T17:08:42.929Z,16.75
2019-04-21T17:11:20.666Z,18.75
2019-04-21T17:13:47.280Z,21.25
2019-04-21T17:16:42.093Z,22.00
2019-04-21T17:19:00.484Z,23.25
2019-04-21T17:21:21.786Z,19.75
2019-04-21T17:23:52.461Z,19.25
2019-04-21T17:26:23.770Z,20.75
2019-04-21T17:28:54.310Z,19.75
2019-04-21T17:31:26.675Z,19.50
2019-04-21T17:34:01.980Z,19.00
2019-04-21T17:36:29.086Z,19.75
2019-04-21T17:39:00.229Z,19.75
2019-04-21T17:41:37.656Z,18.25
2019-04-21T17:44:02.554Z,20.75
2019-04-21T17:46:40.812Z,18.25
2019-04-21T17:49:03.365Z,22.25
2019-04-21T17:51:53.672Z,19.00
2019-04-21T17:54:33.833Z,20.00
2019-04-21T17:57:33.473Z,18.25
2019-04-21T17:59:58.864Z,18.25
2019-04-21T18:02:17.546Z,19.75
2019-04-21T18:04:51.028Z,18.00
2019-04-21T18:07:21.575Z,19.50
2019-04-21T18:10:03.306Z,17.00
2019-04-21T18:12:32.287Z,16.75
2019-04-21T18:14:53.035Z,19.50
2019-04-21T18:17:16.233Z,18.25
2019-04-21T18:19:49.181Z,17.00
2019-04-21T18:22:40.293Z,19.50
2019-04-21T18:25:15.054Z,17.75
2019-04-21T18:27:42.727Z,18.75
2019-04-21T18:30:40.213Z,19.75
2019-04-21T18:35:59.729Z,21.50
2019-04-21T18:39:13.967Z,23.75
2019-04-21T18:41:23.678Z,21.00
2019-04-21T18:44:28.137Z,23.50
2019-04-21T18:47:06.933Z,19.00
2019-04-21T18:49:24.861Z,17.75
2019-04-21T18:52:06.839Z,19.75
2019-04-21T18:54:47.311Z,21.75
2019-04-21T18:57:12.922Z,18.75
2019-04-21T18:59:36.155Z,20.00
2019-04-21T19:02:09.598Z,21.75
2019-04-21T19:04:37.590Z,21.50
2019-04-21T19:07:20.010Z,20.25
2019-04-21T19:12:36.652Z,22.00
2019-04-21T19:14:55.094Z,21.50
2019-04-21T19:17:42.639Z,23.75
2019-04-21T19:20:07.693Z,22.00
2019-04-21T19:22:34.697Z,20.75
2019-04-21T19:25:17.043Z,19.00
2019-04-21T19:27:33.733Z,23.25
2019-04-21T19:30:13.565Z,22.75
2019-04-21T19:32:39.438Z,24.00
2019-04-21T19:34:48.977Z,23.00
2019-04-21T19:37:23.900Z,18.75
2019-04-21T19:40:01.819Z,19.50
2019-04-21T19:42:34.595Z,21.00
2019-04-21T19:45:06.084Z,19.75
2019-04-21T19:47:45.066Z,20.25
2019-04-21T19:50:11.219Z,21.50
2019-04-21T19:52:36.104Z,21.75
2019-04-21T19:54:55.002Z,19.50
2019-04-21T19:57:25.238Z,23.25
2019-04-21T19:59:58.549Z,19.75
2019-04-21T20:02:26.675Z,22.75
2019-04-21T20:05:03.097Z,22.25
2019-04-21T20:07:46.516Z,22.50
2019-04-21T20:10:23.260Z,21.50
2019-04-21T20:12:45.280Z,21.50
2019-04-21T20:15:25.558Z,23.75
2019-04-21T20:17:47.847Z,23.00
2019-04-21T20:20:03.748Z,20.75
2019-04-21T20:22:38.620Z,22.25
2019-04-21T20:25:11.601Z,25.00
2019-04-21T20:27:46.900Z,21.75
2019-04-21T20:30:25.998Z,21.75
2019-04-21T20:32:55.971Z,20.50
2019-04-21T20:35:38.392Z,23.75
2019-04-21T20:37:57.727Z,21.50
2019-04-21T20:40:27.782Z,25.00
2019-04-21T20:43:03.468Z,24.50
2019-04-21T20:45:55.771Z,26.00
2019-04-21T20:47:53.911Z,23.25
2019-04-21T20:50:35.365Z,21.25
2019-04-21T20:53:11.340Z,24.25
2019-04-21T20:55:35.449Z,24.00
2019-04-21T20:58:05.707Z,24.00
2019-04-21T21:00:54.620Z,25.75
2019-04-21T21:03:12.121Z,24.50
2019-04-21T21:05:39.539Z,22.00
2019-04-21T21:08:17.991Z,24.25
2019-04-21T21:10:38.576Z,23.50
2019-04-21T21:16:01.219Z,24.25
2019-04-21T21:20:49.805Z,24.75
2019-04-21T21:23:14.454Z,29.00
2019-04-21T21:25:58.990Z,27.75
2019-04-21T21:28:22.615Z,32.00
2019-04-21T21:30:52.924Z,30.75
2019-04-21T21:33:22.171Z,33.75
2019-04-21T21:35:56.532Z,33.00
2019-04-21T21:38:31.209Z,30.25
2019-04-21T21:40:55.313Z,33.00
2019-04-21T21:43:19.454Z,33.00
2019-04-21T21:45:50.287Z,33.00
2019-04-21T21:48:36.668Z,32.75
2019-04-21T21:50:56.693Z,35.00
2019-04-21T21:53:21.529Z,33.75
2019-04-21T21:55:48.674Z,33.75
2019-04-21T21:58:25.310Z,33.75
2019-04-21T22:00:58.450Z,37.75
2019-04-21T22:03:31.762Z,34.75
2019-04-21T22:06:02.197Z,33.75
2019-04-21T22:08:28.270Z,34.25
2019-04-21T22:10:57.520Z,33.75
2019-04-21T22:13:36.005Z,34.00
2019-04-21T22:16:04.842Z,33.75
2019-04-21T22:18:43.614Z,36.25
2019-04-21T22:21:14.222Z,36.50
2019-04-21T22:23:43.856Z,33.25
2019-04-21T22:26:03.202Z,34.75
2019-04-21T22:28:33.669Z,33.75
2019-04-21T22:31:08.154Z,37.75
2019-04-21T22:33:44.308Z,34.00
2019-04-21T22:36:18.523Z,35.75
2019-04-21T22:38:50.948Z,34.50
2019-04-21T22:41:19.241Z,37.75
2019-04-21T22:43:43.896Z,34.00
2019-04-21T22:46:12.343Z,35.50
2019-04-21T22:48:40.970Z,37.25
2019-04-21T22:51:20.425Z,35.50
2019-04-21T22:53:46.514Z,38.00
2019-04-21T22:56:18.493Z,34.25
2019-04-21T22:58:46.106Z,37.25
2019-04-21T23:01:20.102Z,38.00
2019-04-21T23:03:49.239Z,40.00
2019-04-21T23:06:22.058Z,39.50
2019-04-21T23:08:49.469Z,38.75
2019-04-21T23:11:37.456Z,39.25
2019-04-21T23:14:05.110Z,40.75
2019-04-21T23:16:35.723Z,37.50
2019-04-21T23:19:20.040Z,38.75
2019-04-21T23:21:53.726Z,37.00
2019-04-21T23:24:31.644Z,36.00
2019-04-21T23:26:50.744Z,39.50
2019-04-21T23:29:38.763Z,37.50
2019-04-21T23:31:58.161Z,41.25
2019-04-21T23:34:13.383Z,40.50
2019-04-21T23:36:48.227Z,38.00
2019-04-21T23:39:17.025Z,40.75
2019-04-21T23:41:47.880Z,42.75
2019-04-21T23:44:15.166Z,42.25
2019-04-21T23:46:45.824Z,41.75
2019-04-21T23:49:27.169Z,39.75
2019-04-21T23:51:54.647Z,42.25
2019-04-21T23:54:17.465Z,41.75
2019-04-21T23:56:47.812Z,42.25
2019-04-21T23:59:18.059Z,44.00
